sensor_id;sensor_type;location;lat;lon;timestamp;temperature;humidity
44707;DHT22;30433;45.596;8.408;2023-12-04T00:01:19;1.10;99.90
44707;DHT22;30433;45.596;8.408;2023-12-04T00:07:22;1.20;99.90
44707;DHT22;30433;45.596;8.408;2023-12-04T00:13:24;1.20;99.90
44707;DHT22;30433;45.596;8.408;2023-12-04T00:19:26;1.30;99.90
44707;DHT22;30433;45.596;8.408;2023-12-04T00:25:29;1.30;99.90
44707;DHT22;30433;45.596;8.408;2023-12-04T00:31:31;1.40;99.90
44707;DHT22;30433;45.596;8.408;2023-12-04T00:37:33;1.40;99.90
44707;DHT22;30433;45.596;8.408;2023-12-04T00:43:40;1.50;99.90
44707;DHT22;30433;45.596;8.408;2023-12-04T00:49:42;1.30;99.90
44707;DHT22;30433;45.596;8.408;2023-12-04T00:55:43;1.40;99.90
44707;DHT22;30433;45.596;8.408;2023-12-04T01:21:41;1.10;99.90
44707;DHT22;30433;45.596;8.408;2023-12-04T01:27:43;1.30;99.90
44707;DHT22;30433;45.596;8.408;2023-12-04T01:33:45;1.30;99.90
44707;DHT22;30433;45.596;8.408;2023-12-04T01:39:49;1.20;99.90
44707;DHT22;30433;45.596;8.408;2023-12-04T01:45:51;1.30;99.90
44707;DHT22;30433;45.596;8.408;2023-12-04T01:51:54;1.20;99.90
44707;DHT22;30433;45.596;8.408;2023-12-04T01:57:57;1.30;99.90
44707;DHT22;30433;45.596;8.408;2023-12-04T02:04:00;1.40;99.90
44707;DHT22;30433;45.596;8.408;2023-12-04T02:10:03;1.60;99.90
44707;DHT22;30433;45.596;8.408;2023-12-04T02:16:07;1.50;99.90
44707;DHT22;30433;45.596;8.408;2023-12-04T02:22:10;1.60;99.90
44707;DHT22;30433;45.596;8.408;2023-12-04T02:28:14;1.60;99.90
44707;DHT22;30433;45.596;8.408;2023-12-04T02:34:17;1.50;99.90
44707;DHT22;30433;45.596;8.408;2023-12-04T02:40:19;1.60;99.90
44707;DHT22;30433;45.596;8.408;2023-12-04T02:46:23;1.80;99.90
44707;DHT22;30433;45.596;8.408;2023-12-04T02:52:25;1.80;99.90
44707;DHT22;30433;45.596;8.408;2023-12-04T02:58:26;1.70;99.90
44707;DHT22;30433;45.596;8.408;2023-12-04T03:04:30;1.70;99.90
44707;DHT22;30433;45.596;8.408;2023-12-04T03:17:09;1.70;99.90
44707;DHT22;30433;45.596;8.408;2023-12-04T03:23:13;1.90;99.90
44707;DHT22;30433;45.596;8.408;2023-12-04T03:29:14;2.00;99.90
44707;DHT22;30433;45.596;8.408;2023-12-04T03:35:16;2.00;99.90
44707;DHT22;30433;45.596;8.408;2023-12-04T03:41:20;1.90;99.90
44707;DHT22;30433;45.596;8.408;2023-12-04T03:47:22;1.90;99.90
44707;DHT22;30433;45.596;8.408;2023-12-04T03:53:25;1.90;99.90
44707;DHT22;30433;45.596;8.408;2023-12-04T03:59:29;1.80;99.90
44707;DHT22;30433;45.596;8.408;2023-12-04T04:05:30;1.90;99.90
44707;DHT22;30433;45.596;8.408;2023-12-04T04:11:34;2.00;99.90
44707;DHT22;30433;45.596;8.408;2023-12-04T04:17:38;1.90;99.90
44707;DHT22;30433;45.596;8.408;2023-12-04T04:23:40;1.90;99.90
44707;DHT22;30433;45.596;8.408;2023-12-04T04:29:41;1.90;99.90
44707;DHT22;30433;45.596;8.408;2023-12-04T04:35:45;1.90;99.90
44707;DHT22;30433;45.596;8.408;2023-12-04T04:41:47;2.10;99.90
44707;DHT22;30433;45.596;8.408;2023-12-04T04:47:48;2.10;99.90
44707;DHT22;30433;45.596;8.408;2023-12-04T04:53:52;2.00;99.90
44707;DHT22;30433;45.596;8.408;2023-12-04T04:59:55;2.00;99.90
44707;DHT22;30433;45.596;8.408;2023-12-04T05:05:57;1.90;99.90
44707;DHT22;30433;45.596;8.408;2023-12-04T05:12:00;1.90;99.90
44707;DHT22;30433;45.596;8.408;2023-12-04T05:18:02;2.10;99.90
44707;DHT22;30433;45.596;8.408;2023-12-04T05:24:04;2.20;99.90
44707;DHT22;30433;45.596;8.408;2023-12-04T05:30:08;2.20;99.90
44707;DHT22;30433;45.596;8.408;2023-12-04T05:36:10;2.10;99.90
44707;DHT22;30433;45.596;8.408;2023-12-04T05:42:12;2.00;99.90
44707;DHT22;30433;45.596;8.408;2023-12-04T05:48:15;2.20;99.90
44707;DHT22;30433;45.596;8.408;2023-12-04T05:54:17;2.30;99.90
44707;DHT22;30433;45.596;8.408;2023-12-04T06:00:19;2.30;99.90
44707;DHT22;30433;45.596;8.408;2023-12-04T06:06:23;2.20;99.90
44707;DHT22;30433;45.596;8.408;2023-12-04T06:25:43;2.20;99.90
44707;DHT22;30433;45.596;8.408;2023-12-04T06:31:45;2.20;99.90
44707;DHT22;30433;45.596;8.408;2023-12-04T06:37:47;2.50;99.90
44707;DHT22;30433;45.596;8.408;2023-12-04T06:43:51;2.40;99.90
44707;DHT22;30433;45.596;8.408;2023-12-04T06:49:53;2.30;99.90
44707;DHT22;30433;45.596;8.408;2023-12-04T06:55:55;2.10;99.90
44707;DHT22;30433;45.596;8.408;2023-12-04T07:01:58;2.10;99.90
44707;DHT22;30433;45.596;8.408;2023-12-04T07:08:00;2.20;99.90
44707;DHT22;30433;45.596;8.408;2023-12-04T07:14:03;2.40;99.90
44707;DHT22;30433;45.596;8.408;2023-12-04T07:20:07;2.40;99.90
44707;DHT22;30433;45.596;8.408;2023-12-04T07:26:09;2.50;99.90
44707;DHT22;30433;45.596;8.408;2023-12-04T07:32:11;2.40;99.90
44707;DHT22;30433;45.596;8.408;2023-12-04T07:38:14;2.40;99.90
44707;DHT22;30433;45.596;8.408;2023-12-04T07:44:16;2.40;99.90
44707;DHT22;30433;45.596;8.408;2023-12-04T07:50:18;2.50;99.90
44707;DHT22;30433;45.596;8.408;2023-12-04T07:56:21;2.60;99.90
44707;DHT22;30433;45.596;8.408;2023-12-04T08:02:23;2.60;99.90
44707;DHT22;30433;45.596;8.408;2023-12-04T08:08:25;2.60;99.90
44707;DHT22;30433;45.596;8.408;2023-12-04T08:14:28;2.40;99.90
44707;DHT22;30433;45.596;8.408;2023-12-04T08:20:30;2.60;99.90
44707;DHT22;30433;45.596;8.408;2023-12-04T08:26:33;2.80;99.90
44707;DHT22;30433;45.596;8.408;2023-12-04T08:32:36;2.80;99.90
44707;DHT22;30433;45.596;8.408;2023-12-04T08:38:38;3.00;99.90
44707;DHT22;30433;45.596;8.408;2023-12-04T08:44:40;3.00;99.90
44707;DHT22;30433;45.596;8.408;2023-12-04T08:50:44;3.00;99.90
44707;DHT22;30433;45.596;8.408;2023-12-04T08:56:47;3.10;99.90
44707;DHT22;30433;45.596;8.408;2023-12-04T09:02:48;3.20;99.90
44707;DHT22;30433;45.596;8.408;2023-12-04T09:08:52;3.40;99.90
44707;DHT22;30433;45.596;8.408;2023-12-04T09:14:54;3.50;99.90
44707;DHT22;30433;45.596;8.408;2023-12-04T09:27:35;3.60;99.90
44707;DHT22;30433;45.596;8.408;2023-12-04T09:33:37;3.50;99.90
44707;DHT22;30433;45.596;8.408;2023-12-04T09:39:39;3.60;99.90
44707;DHT22;30433;45.596;8.408;2023-12-04T09:45:42;3.70;99.90
44707;DHT22;30433;45.596;8.408;2023-12-04T09:51:44;3.90;99.90
44707;DHT22;30433;45.596;8.408;2023-12-04T09:57:46;3.90;99.90
44707;DHT22;30433;45.596;8.408;2023-12-04T10:03:51;4.00;99.90
44707;DHT22;30433;45.596;8.408;2023-12-04T10:09:52;3.90;99.90
44707;DHT22;30433;45.596;8.408;2023-12-04T10:15:55;3.70;99.90
44707;DHT22;30433;45.596;8.408;2023-12-04T10:21:59;3.80;99.90
44707;DHT22;30433;45.596;8.408;2023-12-04T10:28:07;4.10;99.90
44707;DHT22;30433;45.596;8.408;2023-12-04T10:34:10;4.10;99.90
44707;DHT22;30433;45.596;8.408;2023-12-04T10:40:13;3.80;99.90
44707;DHT22;30433;45.596;8.408;2023-12-04T10:46:24;4.10;99.90
44707;DHT22;30433;45.596;8.408;2023-12-04T10:52:26;4.10;99.90
44707;DHT22;30433;45.596;8.408;2023-12-04T10:58:30;4.10;99.90
44707;DHT22;30433;45.596;8.408;2023-12-04T11:04:32;4.20;99.90
44707;DHT22;30433;45.596;8.408;2023-12-04T11:10:39;4.10;99.90
44707;DHT22;30433;45.596;8.408;2023-12-04T11:16:45;4.00;99.90
44707;DHT22;30433;45.596;8.408;2023-12-04T11:22:48;4.10;99.90
44707;DHT22;30433;45.596;8.408;2023-12-04T11:28:50;4.10;99.90
44707;DHT22;30433;45.596;8.408;2023-12-04T11:34:55;4.20;99.90
44707;DHT22;30433;45.596;8.408;2023-12-04T11:40:58;4.30;99.90
44707;DHT22;30433;45.596;8.408;2023-12-04T11:47:02;4.10;99.90
44707;DHT22;30433;45.596;8.408;2023-12-04T11:53:06;4.10;99.90
44707;DHT22;30433;45.596;8.408;2023-12-04T11:59:08;4.10;99.90
44707;DHT22;30433;45.596;8.408;2023-12-04T12:05:11;4.30;99.90
44707;DHT22;30433;45.596;8.408;2023-12-04T12:11:15;4.40;99.90
44707;DHT22;30433;45.596;8.408;2023-12-04T12:17:17;4.40;99.90
44707;DHT22;30433;45.596;8.408;2023-12-04T12:23:19;4.40;99.90
44707;DHT22;30433;45.596;8.408;2023-12-04T12:29:22;4.30;99.90
44707;DHT22;30433;45.596;8.408;2023-12-04T12:35:24;4.30;99.90
44707;DHT22;30433;45.596;8.408;2023-12-04T12:41:26;4.30;99.90
44707;DHT22;30433;45.596;8.408;2023-12-04T12:47:29;4.40;99.90
44707;DHT22;30433;45.596;8.408;2023-12-04T13:00:10;4.40;99.90
44707;DHT22;30433;45.596;8.408;2023-12-04T13:06:13;4.30;99.90
44707;DHT22;30433;45.596;8.408;2023-12-04T13:18:53;4.50;99.90
44707;DHT22;30433;45.596;8.408;2023-12-04T13:24:56;4.30;99.90
44707;DHT22;30433;45.596;8.408;2023-12-04T13:30:58;4.00;99.90
44707;DHT22;30433;45.596;8.408;2023-12-04T13:37:00;3.80;99.90
44707;DHT22;30433;45.596;8.408;2023-12-04T13:43:04;3.80;99.90
44707;DHT22;30433;45.596;8.408;2023-12-04T13:49:23;3.70;99.90
44707;DHT22;30433;45.596;8.408;2023-12-04T13:55:25;3.60;99.90
44707;DHT22;30433;45.596;8.408;2023-12-04T14:01:51;3.40;99.90
44707;DHT22;30433;45.596;8.408;2023-12-04T14:07:55;3.40;99.90
44707;DHT22;30433;45.596;8.408;2023-12-04T14:13:57;3.30;99.90
44707;DHT22;30433;45.596;8.408;2023-12-04T14:20:00;3.40;99.90
44707;DHT22;30433;45.596;8.408;2023-12-04T14:26:06;3.40;99.90
44707;DHT22;30433;45.596;8.408;2023-12-04T14:32:08;3.30;99.90
44707;DHT22;30433;45.596;8.408;2023-12-04T14:38:11;3.30;99.90
44707;DHT22;30433;45.596;8.408;2023-12-04T14:44:13;3.30;99.90
44707;DHT22;30433;45.596;8.408;2023-12-04T14:50:15;3.20;99.90
44707;DHT22;30433;45.596;8.408;2023-12-04T14:56:18;3.10;99.90
44707;DHT22;30433;45.596;8.408;2023-12-04T15:02:28;2.90;99.90
44707;DHT22;30433;45.596;8.408;2023-12-04T15:08:48;2.90;99.90
44707;DHT22;30433;45.596;8.408;2023-12-04T15:15:17;2.90;99.90
44707;DHT22;30433;45.596;8.408;2023-12-04T15:21:35;2.80;99.90
44707;DHT22;30433;45.596;8.408;2023-12-04T15:27:37;2.80;99.90
44707;DHT22;30433;45.596;8.408;2023-12-04T15:33:40;2.80;99.90
44707;DHT22;30433;45.596;8.408;2023-12-04T15:39:42;2.60;99.90
44707;DHT22;30433;45.596;8.408;2023-12-04T15:45:44;2.70;99.90
44707;DHT22;30433;45.596;8.408;2023-12-04T15:51:48;2.50;99.90
44707;DHT22;30433;45.596;8.408;2023-12-04T15:57:50;2.50;99.90
44707;DHT22;30433;45.596;8.408;2023-12-04T16:03:55;2.50;99.90
44707;DHT22;30433;45.596;8.408;2023-12-04T16:09:58;2.40;99.90
44707;DHT22;30433;45.596;8.408;2023-12-04T16:16:00;2.40;99.90
44707;DHT22;30433;45.596;8.408;2023-12-04T16:22:03;2.50;99.90
44707;DHT22;30433;45.596;8.408;2023-12-04T16:28:06;2.40;99.90
44707;DHT22;30433;45.596;8.408;2023-12-04T16:34:11;2.40;99.90
44707;DHT22;30433;45.596;8.408;2023-12-04T16:40:13;2.50;99.90
44707;DHT22;30433;45.596;8.408;2023-12-04T16:46:16;2.40;99.90
44707;DHT22;30433;45.596;8.408;2023-12-04T16:52:18;2.40;99.90
44707;DHT22;30433;45.596;8.408;2023-12-04T16:58:20;2.20;99.90
44707;DHT22;30433;45.596;8.408;2023-12-04T17:04:24;2.20;99.90
44707;DHT22;30433;45.596;8.408;2023-12-04T17:10:26;2.20;99.90
44707;DHT22;30433;45.596;8.408;2023-12-04T17:16:29;2.30;99.90
44707;DHT22;30433;45.596;8.408;2023-12-04T17:22:32;2.30;99.90
44707;DHT22;30433;45.596;8.408;2023-12-04T17:28:34;2.30;99.90
44707;DHT22;30433;45.596;8.408;2023-12-04T17:34:36;2.30;99.90
44707;DHT22;30433;45.596;8.408;2023-12-04T17:40:40;2.30;99.90
44707;DHT22;30433;45.596;8.408;2023-12-04T17:46:42;2.30;99.90
44707;DHT22;30433;45.596;8.408;2023-12-04T17:52:44;2.10;99.90
44707;DHT22;30433;45.596;8.408;2023-12-04T17:58:47;2.10;99.90
44707;DHT22;30433;45.596;8.408;2023-12-04T18:04:49;2.20;99.90
44707;DHT22;30433;45.596;8.408;2023-12-04T18:10:51;2.10;99.90
44707;DHT22;30433;45.596;8.408;2023-12-04T18:16:54;2.00;99.90
44707;DHT22;30433;45.596;8.408;2023-12-04T18:22:57;2.10;99.90
44707;DHT22;30433;45.596;8.408;2023-12-04T18:28:59;2.10;99.90
44707;DHT22;30433;45.596;8.408;2023-12-04T18:35:03;2.20;99.90
44707;DHT22;30433;45.596;8.408;2023-12-04T18:41:05;2.20;99.90
44707;DHT22;30433;45.596;8.408;2023-12-04T18:47:07;2.10;99.90
44707;DHT22;30433;45.596;8.408;2023-12-04T18:53:11;2.00;99.90
44707;DHT22;30433;45.596;8.408;2023-12-04T18:59:14;2.00;99.90
44707;DHT22;30433;45.596;8.408;2023-12-04T19:05:16;2.10;99.90
44707;DHT22;30433;45.596;8.408;2023-12-04T19:11:20;2.10;99.90
44707;DHT22;30433;45.596;8.408;2023-12-04T19:17:21;2.00;99.90
44707;DHT22;30433;45.596;8.408;2023-12-04T19:23:23;2.00;99.90
44707;DHT22;30433;45.596;8.408;2023-12-04T19:36:05;1.90;99.90
44707;DHT22;30433;45.596;8.408;2023-12-04T19:42:08;2.00;99.90
44707;DHT22;30433;45.596;8.408;2023-12-04T19:48:09;2.10;99.90
44707;DHT22;30433;45.596;8.408;2023-12-04T19:54:13;2.20;99.90
44707;DHT22;30433;45.596;8.408;2023-12-04T20:00:15;2.00;99.90
44707;DHT22;30433;45.596;8.408;2023-12-04T20:06:17;2.00;99.90
44707;DHT22;30433;45.596;8.408;2023-12-04T20:12:21;2.10;99.90
44707;DHT22;30433;45.596;8.408;2023-12-04T20:18:23;1.90;99.90
44707;DHT22;30433;45.596;8.408;2023-12-04T20:24:25;2.00;99.90
44707;DHT22;30433;45.596;8.408;2023-12-04T20:30:28;2.00;99.90
44707;DHT22;30433;45.596;8.408;2023-12-04T20:36:32;2.10;99.90
44707;DHT22;30433;45.596;8.408;2023-12-04T20:42:34;1.90;99.90
44707;DHT22;30433;45.596;8.408;2023-12-04T20:48:38;2.10;99.90
44707;DHT22;30433;45.596;8.408;2023-12-04T20:54:40;2.20;99.90
44707;DHT22;30433;45.596;8.408;2023-12-04T21:00:42;2.20;99.90
44707;DHT22;30433;45.596;8.408;2023-12-04T21:06:47;2.10;99.90
44707;DHT22;30433;45.596;8.408;2023-12-04T21:12:49;2.10;99.90
44707;DHT22;30433;45.596;8.408;2023-12-04T21:18:51;2.20;99.90
44707;DHT22;30433;45.596;8.408;2023-12-04T21:24:54;2.10;99.90
44707;DHT22;30433;45.596;8.408;2023-12-04T21:30:56;2.20;99.90
44707;DHT22;30433;45.596;8.408;2023-12-04T21:36:58;1.80;99.90
44707;DHT22;30433;45.596;8.408;2023-12-04T21:43:01;1.90;99.90
44707;DHT22;30433;45.596;8.408;2023-12-04T21:49:04;2.10;99.90
44707;DHT22;30433;45.596;8.408;2023-12-04T21:55:06;2.10;99.90
44707;DHT22;30433;45.596;8.408;2023-12-04T22:01:13;1.90;99.90
44707;DHT22;30433;45.596;8.408;2023-12-04T22:07:16;1.90;99.90
44707;DHT22;30433;45.596;8.408;2023-12-04T22:26:35;2.00;99.90
44707;DHT22;30433;45.596;8.408;2023-12-04T22:32:37;2.10;99.90
44707;DHT22;30433;45.596;8.408;2023-12-04T22:38:40;2.10;99.90
44707;DHT22;30433;45.596;8.408;2023-12-04T22:44:43;1.90;99.90
44707;DHT22;30433;45.596;8.408;2023-12-04T22:50:45;1.80;99.90
44707;DHT22;30433;45.596;8.408;2023-12-04T22:56:47;1.80;99.90
44707;DHT22;30433;45.596;8.408;2023-12-04T23:02:50;1.80;99.90
44707;DHT22;30433;45.596;8.408;2023-12-04T23:08:52;2.00;99.90
44707;DHT22;30433;45.596;8.408;2023-12-04T23:14:54;1.90;99.90
44707;DHT22;30433;45.596;8.408;2023-12-04T23:20:58;1.90;99.90
44707;DHT22;30433;45.596;8.408;2023-12-04T23:27:00;2.00;99.90
44707;DHT22;30433;45.596;8.408;2023-12-04T23:33:01;1.90;99.90
44707;DHT22;30433;45.596;8.408;2023-12-04T23:39:05;2.00;99.90
44707;DHT22;30433;45.596;8.408;2023-12-04T23:45:08;1.80;99.90
44707;DHT22;30433;45.596;8.408;2023-12-04T23:51:10;2.00;99.90
44707;DHT22;30433;45.596;8.408;2023-12-04T23:57:13;2.10;99.90
